Terminal Aerodrome Forecast
Issued by NWS

Home | Current Version | Previous Version | Text Only | Print | Product List | Glossary On
Versions: 1 2 3 4 5 6 7 8 9 10 11 12 13 14 15 16 17 18 19 20 21 22 23 24 25 26 27 28 29 30 31
000
FTUS44 KHGX 222322
TAFLBX
TAF
KLBX 222322Z 2300/2324 16010KT P6SM FEW030
     FM230600 VRB03KT P6SM FEW015
      TEMPO 2310/2313 1SM BR
     FM231500 18006KT P6SM SCT025
     FM231800 15009KT P6SM FEW040=

USA.gov is the U.S. government's official web portal to all federal, state and local government web resources and services.